Saturday, December 15, 2018, 2:01 PM EST
Back to Local

KPVD, Providence Green State Airport

Location: Warwick, RI, United States Lat: 41.733
Local Time: 2:01 PM EST (19:01 GMT) Lon: -71.433
Time Zone: US/Eastern Elev: 55 ft

Show me the last for .
Show Decoded

2018-12-15 13:51 METAR KPVD 151851Z 06004KT 9SM FEW002 FEW050 SCT070 BKN180 OVC300 10/09 A3012
                 RMK AO2 SLP200 T01000094 $ =
2018-12-15 12:51 METAR KPVD 151751Z VRB03KT 10SM FEW001 BKN050 OVC070 11/09 A3013 RMK AO2 SLP202
                 FG FEW001 60004 T01060094 10111 20078 56030 $ =
2018-12-15 11:51 METAR KPVD 151651Z 00000KT 8SM BCFG SCT002 BKN041 OVC055 10/09 A3014 RMK AO2
                 SLP207 BCFG S T01000094 $ =
2018-12-15 10:51 METAR KPVD 151551Z 22003KT 8SM FEW002 BKN055 OVC070 09/09 A3018 RMK AO2 SLP220
                 RAE00DZB00E10 P0000 T00940089 $ =
2018-12-15 10:00 METAR KPVD 151500Z COR 33003KT 4SM -DZ BR BKN034 OVC048 09/09 A3021 =
2018-12-15 09:51 METAR KPVD 151451Z 31004KT 1SM R05/6000VP6000FT -RA BR FEW010 SCT024 OVC034
                 09/09 A3022 RMK AO2 SFC VIS 3 SLP232 RA VRY LGT P0003 60004 T00890089 51008 $ =
2018-12-15 09:06 METAR KPVD 151406Z 00000KT 1SM R05/3000V6000FT -RA BR SCT002 SCT013 OVC020 08/08
                 A3021 RMK AO2 SFC VIS 1 3/4 P0001 T00830083 $ =
2018-12-15 08:51 METAR KPVD 151351Z COR 00000KT 1/2SM R05/3500VP6000FT -RA BR BKN003 BKN010
                 OVC018 09/08 A3021 RMK AO2 SFC VIS 1 3/4 SLP231 DZB1257E10E32RAB32 P0001
                 T00890083 $ =
2018-12-15 08:31 METAR KPVD 151331Z 34004KT 1/2SM R05/4500VP6000FT BR BKN003 BKN010 OVC018 08/08
                 A3020 RMK AO2 SFC VIS 3/4 DZB1257E10 P0000 T00830083 $ =
2018-12-15 08:24 METAR KPVD 151324Z 00000KT 1 3/4SM R05/6000VP6000FT BR BKN003 BKN010 OVC020
                 08/08 A3020 RMK AO2 TWR VIS 2 DZB1257E10 P0000 T00830083 $ =
2018-12-15 07:56 METAR KPVD 151256Z 00000KT 2SM BR BKN004 OVC010 08/08 A3020 RMK AO2 SFC VIS 4
                 T00830083 $ =
2018-12-15 07:51 METAR KPVD 151251Z 00000KT 5SM BR OVC005 08/08 A3020 RMK AO2 SLP226 BINOVC
                 DZE1155 P0000 T00830083 $ =
2018-12-15 06:51 METAR KPVD 151151Z 25003KT 6SM -DZ BR BKN008 OVC024 08/08 A3019 RMK AO2 SLP224
                 CIG 008V017 P0000 60000 T00830078 10089 20072 53002 $ =
2018-12-15 06:33 METAR KPVD 151133Z 22003KT 3SM -DZ BR BKN010 OVC024 08/08 A3019 RMK AO2 CIG
                 008V017 P0000 T00780078 $ =
2018-12-15 05:51 METAR KPVD 151051Z 20006KT 2 1/2SM -DZ BR BKN011 OVC025 08/07 A3018 RMK AO2
                 SLP218 DZB39 CIG 010V018 P0000 T00780072 $ =
2018-12-15 05:38 METAR KPVD 151038Z COR 20005KT 10SM BKN014 OVC025 07/07 A3018 =
2018-12-15 05:05 METAR KPVD 151005Z AUTO 24003KT 10SM SCT011 BKN018 OVC026 08/07 A3018 RMK AO2
                 T00780072 $ =
2018-12-15 04:51 METAR KPVD 150951Z AUTO 20006KT 9SM BKN012 BKN018 OVC025 07/07 A3018 RMK AO2
                 SLP221 T00720072 $ =
2018-12-15 04:39 METAR KPVD 150939Z AUTO 00000KT 10SM OVC013 08/08 A3020 RMK AO2 T00830078 $ =
2018-12-15 04:07 METAR KPVD 150907Z AUTO 19005KT 8SM BKN015 OVC055 07/07 A3019 RMK AO2 T00720072
                 $ =
2018-12-15 03:51 METAR KPVD 150851Z AUTO 19004KT 10SM OVC055 08/07 A3018 RMK AO2 RAB00E17 SLP221
                 P0000 60000 T00780072 58015 $ =
2018-12-15 02:51 METAR KPVD 150751Z AUTO 21004KT 10SM SCT009 BKN060 08/07 A3021 RMK AO2 SLP230
                 T00780072 $ =
2018-12-15 02:43 METAR KPVD 150743Z AUTO 21004KT 10SM SCT009 OVC060 08/07 A3021 RMK AO2 T00780072
                 $ =
2018-12-15 01:51 METAR KPVD 150651Z AUTO 21006KT 10SM FEW010 BKN050 BKN060 08/08 A3022 RMK AO2
                 RAB12E30 SLP233 P0000 T00830078 $ =
2018-12-15 01:18 METAR KPVD 150618Z AUTO 21006KT 10SM -RA SCT009 BKN065 OVC090 08/08 A3022 RMK
                 AO2 RAB12 P0000 T00830078 $ =
2018-12-15 00:51 METAR KPVD 150551Z AUTO 22006KT 10SM OVC009 09/08 A3023 RMK AO2 SLP236 T00890078
                 10089 20050 58019 $ =
2018-12-14 23:51 METAR KPVD 150451Z COR 22007KT 7SM OVC006 08/08 A3025 RMK AO2 LAST SLP242
                 T00830078 400831056 $ =
2018-12-14 23:27 METAR KPVD 150427Z COR 20007KT 6SM BR OVC005 08/07 A3025 =
2018-12-14 22:51 METAR KPVD 150351Z 20004KT 3SM BR OVC004 07/06 A3027 RMK AO2 SLP250 T00670061 $
                 =
2018-12-14 22:31 METAR KPVD 150331Z 19003KT 3SM BR OVC004 07/06 A3028 RMK AO2 T00670061 $ =
2018-12-14 21:51 METAR KPVD 150251Z 20005KT 2 1/2SM BR OVC004 06/06 A3029 RMK AO2 SLP256
                 T00610056 58022 $ =
2018-12-14 21:39 METAR KPVD 150239Z 20005KT 3SM BR OVC004 06/06 A3029 RMK AO2 T00610056 $ =
2018-12-14 20:51 METAR KPVD 150151Z 18006KT 5SM BR OVC005 06/06 A3031 RMK AO2 SLP263 T00610056 $
                 =
2018-12-14 19:51 METAR KPVD 150051Z 19003KT 6SM BR OVC007 06/05 A3033 RMK AO2 SLP272 T00560050 $
                 =
2018-12-14 19:21 METAR KPVD 150021Z 18003KT 10SM OVC008 06/04 A3035 RMK AO2 T00560044 =
2018-12-14 18:59 METAR KPVD 142359Z 00000KT 10SM SCT008 OVC011 06/04 A3035 RMK AO2 T00560044 =
2018-12-14 18:51 METAR KPVD 142351Z 00000KT 10SM OVC011 06/04 A3035 RMK AO2 SLP278 T00560044
                 10078 20056 58016 =
2018-12-14 18:34 METAR KPVD 142334Z 15003KT 10SM FEW008 BKN013 OVC025 06/04 A3036 RMK AO2
                 T00560044 =
2018-12-14 18:14 METAR KPVD 142314Z 00000KT 10SM SCT013 OVC025 06/04 A3038 RMK AO2 T00560044 =
2018-12-14 17:51 METAR KPVD 142251Z 15005KT 10SM OVC012 06/04 A3037 RMK AO2 SLP285 T00560044 =
2018-12-14 16:51 METAR KPVD 142151Z 15005KT 10SM BKN011 OVC024 06/04 A3040 RMK AO2 SLP294
                 T00610044 =
2018-12-14 16:49 METAR KPVD 142149Z 15005KT 10SM BKN011 OVC024 06/04 A3040 RMK AO2 =
2018-12-14 15:51 METAR KPVD 142051Z 16005KT 10SM BKN022 BKN060 OVC250 06/04 A3041 RMK AO2 SLP297
                 T00610039 55009 =
2018-12-14 15:09 METAR KPVD 142009Z 18006KT 10SM BKN022 BKN060 OVC250 07/04 A3041 RMK AO2
                 T00670039 =
2018-12-14 14:51 METAR KPVD 141951Z 16007KT 10SM FEW022 BKN060 BKN250 07/04 A3040 RMK AO2 SLP295
                 T00670039 =

Support USWX by starting your Amazon purchase here.